sensor_id;sensor_type;location;lat;lon;timestamp;pressure;altitude;pressure_sealevel;temperature;humidity
73598;BME280;61874;48.146;11.594;2022-08-21T00:01:26;96000.22;;;16.36;96.38
73598;BME280;61874;48.146;11.594;2022-08-21T00:03:53;96003.53;;;16.33;96.49
73598;BME280;61874;48.146;11.594;2022-08-21T00:06:20;95994.03;;;16.36;96.36
73598;BME280;61874;48.146;11.594;2022-08-21T00:08:46;96001.78;;;16.37;96.28
73598;BME280;61874;48.146;11.594;2022-08-21T00:11:12;95993.53;;;16.42;96.14
73598;BME280;61874;48.146;11.594;2022-08-21T00:13:38;95988.13;;;16.42;96.06
73598;BME280;61874;48.146;11.594;2022-08-21T00:16:04;95996.88;;;16.39;95.93
73598;BME280;61874;48.146;11.594;2022-08-21T00:18:29;95993.22;;;16.35;95.66
73598;BME280;61874;48.146;11.594;2022-08-21T00:20:55;95993.88;;;16.32;96.03
73598;BME280;61874;48.146;11.594;2022-08-21T00:23:21;95996.25;;;16.34;95.99
73598;BME280;61874;48.146;11.594;2022-08-21T00:25:47;95994.97;;;16.31;95.78
73598;BME280;61874;48.146;11.594;2022-08-21T00:28:12;95998.63;;;16.35;95.93
73598;BME280;61874;48.146;11.594;2022-08-21T00:30:39;95996.41;;;16.28;95.68
73598;BME280;61874;48.146;11.594;2022-08-21T00:33:06;95992.94;;;16.28;96.01
73598;BME280;61874;48.146;11.594;2022-08-21T00:35:35;95992.31;;;16.22;96.18
73598;BME280;61874;48.146;11.594;2022-08-21T00:38:02;95997.25;;;16.12;95.73
73598;BME280;61874;48.146;11.594;2022-08-21T00:40:35;95987.41;;;16.07;95.83
73598;BME280;61874;48.146;11.594;2022-08-21T00:43:07;95987.41;;;16.07;96.41
73598;BME280;61874;48.146;11.594;2022-08-21T00:45:33;95984.06;;;16.02;96.57
73598;BME280;61874;48.146;11.594;2022-08-21T00:47:59;95992.81;;;15.99;96.56
73598;BME280;61874;48.146;11.594;2022-08-21T00:50:30;95996.94;;;15.96;96.83
73598;BME280;61874;48.146;11.594;2022-08-21T00:52:58;95990.75;;;15.95;96.37
73598;BME280;61874;48.146;11.594;2022-08-21T00:55:26;95998.38;;;15.93;96.46
73598;BME280;61874;48.146;11.594;2022-08-21T00:57:54;95986.63;;;15.98;96.57
73598;BME280;61874;48.146;11.594;2022-08-21T01:00:29;95991.38;;;15.92;96.54
73598;BME280;61874;48.146;11.594;2022-08-21T01:02:57;95990.44;;;15.88;96.54
73598;BME280;61874;48.146;11.594;2022-08-21T01:05:24;95984.09;;;15.84;96.48
73598;BME280;61874;48.146;11.594;2022-08-21T01:07:50;95986.31;;;15.82;96.15
73598;BME280;61874;48.146;11.594;2022-08-21T01:10:16;95977.91;;;15.84;96.36
73598;BME280;61874;48.146;11.594;2022-08-21T01:12:42;95975.69;;;15.86;96.42
73598;BME280;61874;48.146;11.594;2022-08-21T01:15:09;95971.88;;;15.87;95.82
73598;BME280;61874;48.146;11.594;2022-08-21T01:17:35;95973.00;;;15.86;95.65
73598;BME280;61874;48.146;11.594;2022-08-21T01:20:05;95967.94;;;15.84;95.92
73598;BME280;61874;48.146;11.594;2022-08-21T01:25:46;95972.53;;;15.84;95.71
73598;BME280;61874;48.146;11.594;2022-08-21T01:28:13;95968.88;;;15.80;95.42
73598;BME280;61874;48.146;11.594;2022-08-21T01:30:40;95972.50;;;15.75;95.31
73598;BME280;61874;48.146;11.594;2022-08-21T01:33:07;95967.94;;;15.67;95.65
73598;BME280;61874;48.146;11.594;2022-08-21T01:35:33;95964.28;;;15.63;95.64
73598;BME280;61874;48.146;11.594;2022-08-21T01:37:58;95970.94;;;15.66;95.93
73598;BME280;61874;48.146;11.594;2022-08-21T01:40:23;95971.25;;;15.64;95.71
73598;BME280;61874;48.146;11.594;2022-08-21T01:42:49;95969.97;;;15.62;95.71
73598;BME280;61874;48.146;11.594;2022-08-21T01:45:15;95976.78;;;15.59;95.62
73598;BME280;61874;48.146;11.594;2022-08-21T01:47:42;95977.59;;;15.59;95.32
73598;BME280;61874;48.146;11.594;2022-08-21T01:50:16;95967.47;;;15.56;95.43
73598;BME280;61874;48.146;11.594;2022-08-21T01:52:42;95969.66;;;15.54;95.27
73598;BME280;61874;48.146;11.594;2022-08-21T01:55:09;95968.25;;;15.57;95.31
73598;BME280;61874;48.146;11.594;2022-08-21T01:57:35;95967.59;;;15.60;95.38
